createdAt,value
2019-03-26T00:00:52.888Z,0.00
2019-03-26T00:01:53.055Z,0.00
2019-03-26T00:02:53.246Z,0.00
2019-03-26T00:04:05.132Z,0.00
2019-03-26T00:04:53.602Z,0.00
2019-03-26T00:05:53.790Z,0.00
2019-03-26T00:06:53.994Z,0.00
2019-03-26T00:07:54.172Z,0.00
2019-03-26T00:08:54.355Z,0.00
2019-03-26T00:09:54.545Z,0.00
2019-03-26T00:10:54.726Z,0.00
2019-03-26T00:11:54.918Z,0.00
2019-03-26T00:12:55.101Z,0.00
2019-03-26T00:13:57.593Z,0.00
2019-03-26T00:14:55.467Z,0.00
2019-03-26T00:15:55.650Z,0.00
2019-03-26T00:16:55.820Z,0.00
2019-03-26T00:17:55.996Z,0.00
2019-03-26T00:18:56.184Z,0.00
2019-03-26T00:19:56.366Z,0.00
2019-03-26T00:20:56.590Z,0.00
2019-03-26T00:21:56.775Z,0.00
2019-03-26T00:22:56.956Z,0.00
2019-03-26T00:23:57.136Z,0.00
2019-03-26T00:24:57.312Z,0.00
2019-03-26T00:25:57.512Z,0.00
2019-03-26T00:26:57.696Z,0.00
2019-03-26T00:27:57.940Z,0.00
2019-03-26T00:28:58.049Z,0.00
2019-03-26T00:29:58.226Z,0.00
2019-03-26T00:30:58.421Z,0.00
2019-03-26T00:31:58.594Z,0.00
2019-03-26T00:32:58.792Z,0.00
2019-03-26T00:33:58.949Z,0.00
2019-03-26T00:34:59.133Z,0.00
2019-03-26T00:35:59.317Z,0.00
2019-03-26T00:36:59.507Z,0.00
2019-03-26T00:37:59.682Z,0.00
2019-03-26T00:38:59.855Z,0.00
2019-03-26T00:40:00.048Z,0.00
2019-03-26T00:41:00.231Z,0.00
2019-03-26T00:42:00.412Z,0.00
2019-03-26T00:43:00.596Z,0.00
2019-03-26T00:44:00.783Z,0.00
2019-03-26T00:45:00.970Z,0.00
2019-03-26T00:46:01.148Z,0.00
2019-03-26T00:47:01.343Z,0.00
2019-03-26T00:48:01.522Z,0.00
2019-03-26T00:49:01.701Z,0.00
2019-03-26T00:50:01.882Z,0.00
2019-03-26T00:51:02.063Z,0.00
2019-03-26T00:52:02.246Z,0.00
2019-03-26T00:53:02.437Z,0.00
2019-03-26T00:54:02.605Z,0.00
2019-03-26T00:55:02.796Z,0.00
2019-03-26T00:56:02.974Z,0.00
2019-03-26T00:57:03.161Z,0.00
2019-03-26T00:58:03.338Z,0.00
2019-03-26T00:59:03.531Z,0.00
2019-03-26T01:00:03.731Z,0.00
2019-03-26T01:01:03.916Z,0.00
2019-03-26T01:02:04.126Z,0.00
2019-03-26T01:03:04.295Z,0.00
2019-03-26T01:04:04.480Z,0.00
2019-03-26T01:05:04.674Z,0.00
2019-03-26T01:06:04.840Z,0.00
2019-03-26T01:07:05.010Z,0.00
2019-03-26T01:08:05.200Z,0.00
2019-03-26T01:09:05.380Z,0.00
2019-03-26T01:10:05.564Z,0.00
2019-03-26T01:11:05.745Z,0.00
2019-03-26T01:12:05.924Z,0.00
2019-03-26T01:13:06.117Z,0.00
2019-03-26T01:14:06.297Z,0.00
2019-03-26T01:15:06.489Z,0.00
2019-03-26T01:16:06.677Z,0.00
2019-03-26T01:17:06.856Z,0.00
2019-03-26T01:18:07.043Z,0.00
2019-03-26T01:19:07.241Z,0.00
2019-03-26T01:20:07.417Z,0.00
2019-03-26T01:21:07.599Z,0.00
2019-03-26T01:22:07.785Z,0.00
2019-03-26T01:23:07.965Z,0.00
2019-03-26T01:24:08.146Z,0.00
2019-03-26T01:25:08.328Z,0.00
2019-03-26T01:26:08.587Z,0.00
2019-03-26T01:27:08.689Z,0.00
2019-03-26T01:28:08.868Z,0.00
2019-03-26T01:29:09.054Z,0.00
2019-03-26T01:30:09.231Z,0.00
2019-03-26T01:31:09.414Z,0.00
2019-03-26T01:32:09.602Z,0.00
2019-03-26T01:33:09.788Z,0.00
2019-03-26T01:34:09.966Z,0.00
2019-03-26T01:35:10.157Z,0.00
2019-03-26T01:36:10.333Z,0.00
2019-03-26T01:37:10.526Z,0.00
2019-03-26T01:38:10.704Z,0.00
2019-03-26T01:39:10.907Z,0.00
2019-03-26T01:40:11.089Z,0.00
2019-03-26T01:41:11.281Z,0.00
2019-03-26T01:42:11.463Z,0.00
2019-03-26T01:43:11.661Z,0.00
2019-03-26T01:44:11.843Z,0.00
2019-03-26T01:45:12.025Z,0.00
2019-03-26T01:46:12.208Z,0.00
2019-03-26T01:47:12.395Z,0.00
2019-03-26T01:48:12.575Z,0.00
2019-03-26T01:49:12.756Z,0.00
2019-03-26T01:50:12.944Z,0.00
2019-03-26T01:51:13.125Z,0.00
2019-03-26T01:52:13.310Z,0.00
2019-03-26T01:53:13.495Z,0.00
2019-03-26T01:54:13.676Z,0.00
2019-03-26T01:55:13.851Z,0.00
2019-03-26T01:56:14.034Z,0.00
2019-03-26T01:57:14.221Z,0.00
2019-03-26T01:58:14.400Z,0.00
2019-03-26T01:59:14.583Z,0.00
2019-03-26T02:00:14.765Z,0.00
2019-03-26T02:01:14.944Z,0.00
2019-03-26T02:02:15.128Z,0.00
2019-03-26T02:03:15.316Z,0.00
2019-03-26T02:04:15.503Z,0.00
2019-03-26T02:05:15.687Z,0.00
2019-03-26T02:06:15.870Z,0.00
2019-03-26T02:07:16.057Z,0.00
2019-03-26T02:08:16.230Z,0.00
2019-03-26T02:09:16.419Z,0.00
2019-03-26T02:10:16.601Z,0.00
2019-03-26T02:11:16.784Z,0.00
2019-03-26T02:12:16.981Z,0.00
2019-03-26T02:13:17.161Z,0.00
2019-03-26T02:14:17.344Z,0.00
2019-03-26T02:15:17.528Z,0.00
2019-03-26T02:16:17.709Z,0.00
2019-03-26T02:17:17.891Z,0.00
2019-03-26T02:18:18.071Z,0.00
2019-03-26T02:19:18.253Z,0.00
2019-03-26T02:20:18.441Z,0.00
2019-03-26T02:21:18.613Z,0.00
2019-03-26T02:22:18.791Z,0.00
2019-03-26T02:23:18.984Z,0.00
2019-03-26T02:24:19.172Z,0.00
2019-03-26T02:25:19.350Z,0.00
2019-03-26T02:26:19.530Z,0.00
2019-03-26T02:27:19.712Z,0.00
2019-03-26T02:28:19.899Z,0.00
2019-03-26T02:29:20.079Z,0.00
2019-03-26T02:30:20.260Z,0.00
2019-03-26T02:31:20.453Z,0.00
2019-03-26T02:32:20.634Z,0.00
2019-03-26T02:33:20.816Z,0.00
2019-03-26T02:34:21.015Z,0.00
2019-03-26T02:35:21.201Z,0.00
2019-03-26T02:36:21.371Z,0.00
2019-03-26T02:37:21.704Z,0.00
2019-03-26T02:38:21.754Z,0.00
2019-03-26T02:39:21.924Z,0.00
2019-03-26T02:40:22.096Z,0.00
2019-03-26T02:41:22.277Z,0.00
2019-03-26T02:42:22.460Z,0.00
2019-03-26T02:43:22.637Z,0.00
2019-03-26T02:44:22.818Z,0.00
2019-03-26T02:45:23.001Z,0.00
2019-03-26T02:46:23.208Z,0.00
2019-03-26T02:47:23.390Z,0.00
2019-03-26T02:48:23.549Z,0.00
2019-03-26T02:49:23.726Z,0.00
2019-03-26T02:50:23.901Z,0.00
2019-03-26T02:51:24.104Z,0.00
2019-03-26T02:52:24.304Z,0.00
2019-03-26T02:53:24.472Z,0.00
2019-03-26T02:54:24.650Z,0.00
2019-03-26T02:55:24.844Z,0.00
2019-03-26T02:56:25.014Z,0.00
2019-03-26T02:57:25.198Z,0.00
2019-03-26T02:58:25.372Z,0.00
2019-03-26T02:59:25.561Z,0.00
2019-03-26T03:00:25.738Z,0.00
2019-03-26T03:01:25.921Z,0.00
2019-03-26T03:02:26.104Z,0.00
2019-03-26T03:03:26.296Z,0.00
2019-03-26T03:04:26.466Z,0.00
2019-03-26T03:05:34.904Z,0.00
2019-03-26T03:06:26.826Z,0.00
2019-03-26T03:07:27.009Z,0.00
2019-03-26T03:08:27.185Z,0.00
2019-03-26T03:09:27.366Z,0.00
2019-03-26T03:10:27.550Z,0.00
2019-03-26T03:11:27.734Z,0.00
2019-03-26T03:12:27.910Z,0.00
2019-03-26T03:13:28.098Z,0.00
2019-03-26T03:14:28.276Z,0.00
2019-03-26T03:15:28.457Z,0.00
2019-03-26T03:16:28.643Z,0.00
2019-03-26T03:17:28.827Z,0.00
2019-03-26T03:18:29.011Z,0.00
2019-03-26T03:19:29.186Z,0.00
2019-03-26T03:20:29.366Z,0.00
2019-03-26T03:21:29.565Z,0.00
2019-03-26T03:22:29.732Z,0.00
2019-03-26T03:23:29.928Z,0.00
2019-03-26T03:24:30.102Z,0.00
2019-03-26T03:25:30.286Z,0.00
2019-03-26T03:26:30.464Z,0.00
2019-03-26T03:27:30.650Z,0.00
2019-03-26T03:28:30.834Z,0.00
2019-03-26T03:29:31.015Z,0.00
2019-03-26T03:30:31.192Z,0.00
2019-03-26T03:31:31.377Z,0.00
2019-03-26T03:32:31.564Z,0.00
2019-03-26T03:33:31.733Z,0.00
2019-03-26T03:34:31.926Z,0.00
2019-03-26T03:35:32.103Z,0.00
2019-03-26T03:36:32.293Z,0.00
2019-03-26T03:37:32.471Z,0.00
2019-03-26T03:38:32.646Z,0.00
2019-03-26T03:39:32.829Z,0.00
2019-03-26T03:40:33.017Z,0.00
2019-03-26T03:41:33.196Z,0.00
2019-03-26T03:42:33.378Z,0.00
2019-03-26T03:43:33.563Z,0.00
2019-03-26T03:44:33.740Z,0.00
2019-03-26T03:45:33.922Z,0.00
2019-03-26T03:46:34.102Z,0.00
2019-03-26T03:47:34.284Z,0.00
2019-03-26T03:48:34.467Z,0.00
2019-03-26T03:49:34.649Z,0.00
2019-03-26T03:50:34.822Z,0.00
2019-03-26T03:51:35.001Z,0.00
2019-03-26T03:52:35.563Z,0.00
2019-03-26T03:53:35.377Z,0.00
2019-03-26T03:54:35.550Z,0.00
2019-03-26T03:55:35.730Z,0.00
2019-03-26T03:56:35.934Z,0.00
2019-03-26T03:57:36.099Z,0.00
2019-03-26T03:58:36.283Z,0.00
2019-03-26T03:59:36.470Z,0.00
2019-03-26T04:00:36.655Z,0.00
2019-03-26T04:01:36.832Z,0.00
2019-03-26T04:02:37.012Z,0.00
2019-03-26T04:03:37.189Z,0.00
2019-03-26T04:04:37.381Z,0.00
2019-03-26T04:05:37.559Z,0.00
2019-03-26T04:06:37.738Z,0.00
2019-03-26T04:07:37.922Z,0.00
2019-03-26T04:08:38.102Z,0.00
2019-03-26T04:09:38.287Z,0.00
2019-03-26T04:10:38.470Z,0.00
2019-03-26T04:11:38.653Z,0.00
2019-03-26T04:12:38.835Z,0.00
2019-03-26T04:13:39.006Z,0.00
2019-03-26T04:14:39.240Z,0.00
2019-03-26T04:15:39.376Z,0.00
2019-03-26T04:16:39.552Z,0.00
2019-03-26T04:17:39.736Z,0.00
2019-03-26T04:18:39.914Z,0.00
2019-03-26T04:19:40.109Z,0.00
2019-03-26T04:20:40.303Z,0.00
2019-03-26T04:21:40.474Z,0.00
2019-03-26T04:22:40.652Z,0.00
2019-03-26T04:23:40.918Z,0.00
2019-03-26T04:24:41.011Z,0.00
2019-03-26T04:25:41.187Z,0.00
2019-03-26T04:26:41.411Z,0.00
2019-03-26T04:27:41.585Z,0.00
2019-03-26T04:28:41.766Z,0.00
2019-03-26T04:29:41.980Z,0.00
2019-03-26T04:30:42.140Z,0.00
2019-03-26T04:31:42.329Z,0.00
2019-03-26T04:32:42.510Z,0.00
2019-03-26T04:33:42.692Z,0.00
2019-03-26T04:34:42.870Z,0.00
2019-03-26T04:35:43.060Z,0.00
2019-03-26T04:36:43.234Z,0.00
2019-03-26T04:37:43.420Z,0.00
2019-03-26T04:38:43.602Z,0.00
2019-03-26T04:39:43.784Z,0.00
2019-03-26T04:40:43.962Z,0.00
2019-03-26T04:41:44.149Z,0.00
2019-03-26T04:42:44.330Z,0.00
2019-03-26T04:43:44.515Z,0.00
2019-03-26T04:44:44.699Z,0.00
2019-03-26T04:45:44.879Z,0.00
2019-03-26T04:46:45.147Z,0.00
2019-03-26T04:47:45.252Z,0.00
2019-03-26T04:48:45.433Z,0.00
2019-03-26T04:49:45.616Z,0.00
2019-03-26T04:50:45.798Z,0.00
2019-03-26T04:51:45.978Z,0.00
2019-03-26T04:52:46.161Z,0.00
2019-03-26T04:53:46.339Z,0.00
2019-03-26T04:54:46.521Z,0.00
2019-03-26T04:55:46.722Z,0.00
2019-03-26T04:56:46.907Z,0.00
2019-03-26T04:57:47.089Z,0.00
2019-03-26T04:58:47.269Z,0.00
2019-03-26T04:59:47.455Z,0.00
2019-03-26T05:00:47.642Z,0.00
2019-03-26T05:01:47.811Z,0.00
2019-03-26T05:02:47.988Z,0.00
2019-03-26T05:03:48.172Z,0.00
2019-03-26T05:04:48.350Z,0.00
2019-03-26T05:05:48.534Z,0.00
2019-03-26T05:06:48.715Z,0.00
2019-03-26T05:07:48.908Z,0.00
2019-03-26T05:08:49.092Z,0.00
2019-03-26T05:09:49.271Z,0.00
2019-03-26T05:10:49.493Z,0.00
2019-03-26T05:11:49.637Z,5.63
2019-03-26T05:12:49.814Z,5.63
2019-03-26T05:13:49.997Z,5.63
2019-03-26T05:14:50.188Z,5.63
2019-03-26T05:15:50.370Z,5.63
2019-03-26T05:16:50.552Z,5.63
2019-03-26T05:17:50.735Z,5.63
2019-03-26T05:18:50.915Z,5.63
2019-03-26T05:19:51.094Z,5.63
2019-03-26T05:20:51.275Z,5.63
2019-03-26T05:21:51.454Z,5.63
2019-03-26T05:22:51.639Z,5.63
2019-03-26T05:23:52.145Z,5.63
2019-03-26T05:24:51.997Z,11.25
2019-03-26T05:25:52.180Z,11.25
2019-03-26T05:26:52.369Z,11.25
2019-03-26T05:27:52.550Z,11.25
2019-03-26T05:28:52.727Z,11.25
2019-03-26T05:29:52.909Z,11.25
2019-03-26T05:30:53.089Z,11.25
2019-03-26T05:31:53.280Z,11.25
2019-03-26T05:32:53.480Z,11.25
2019-03-26T05:33:53.649Z,11.25
2019-03-26T05:34:53.865Z,11.25
2019-03-26T05:35:53.982Z,11.25
2019-03-26T05:36:54.186Z,11.25
2019-03-26T05:37:54.389Z,11.25
2019-03-26T05:38:54.602Z,11.25
2019-03-26T05:39:54.764Z,11.25
2019-03-26T05:40:54.967Z,16.88
2019-03-26T05:41:55.173Z,16.88
2019-03-26T05:42:55.347Z,22.50
2019-03-26T05:43:55.530Z,22.50
2019-03-26T05:44:55.777Z,22.50
2019-03-26T05:45:55.897Z,22.50
2019-03-26T05:46:56.081Z,22.50
2019-03-26T05:47:56.266Z,22.50
2019-03-26T05:48:56.480Z,28.13
2019-03-26T05:49:56.644Z,28.13
2019-03-26T05:50:56.828Z,28.13
2019-03-26T05:51:57.005Z,28.13
2019-03-26T05:52:57.194Z,33.75
2019-03-26T05:53:57.353Z,28.13
2019-03-26T05:54:57.540Z,28.13
2019-03-26T05:55:57.721Z,33.75
2019-03-26T05:56:57.902Z,33.75
2019-03-26T05:57:58.094Z,33.75
2019-03-26T05:58:58.290Z,39.38
2019-03-26T05:59:58.480Z,39.38
2019-03-26T06:00:58.666Z,45.00
2019-03-26T06:01:58.846Z,39.38
2019-03-26T06:02:59.026Z,45.00
2019-03-26T06:03:59.212Z,45.00
2019-03-26T06:04:59.397Z,50.63
2019-03-26T06:05:59.576Z,56.25
2019-03-26T06:07:05.006Z,61.88
2019-03-26T06:07:59.937Z,61.88
2019-03-26T06:09:00.125Z,61.88
2019-03-26T06:10:00.376Z,61.88
2019-03-26T06:11:00.484Z,61.88
2019-03-26T06:12:00.666Z,56.25
2019-03-26T06:13:00.856Z,56.25
2019-03-26T06:14:01.057Z,61.88
2019-03-26T06:15:01.230Z,61.88
2019-03-26T06:16:01.410Z,67.50
2019-03-26T06:17:01.596Z,67.50
2019-03-26T06:18:01.777Z,61.88
2019-03-26T06:19:01.965Z,61.88
2019-03-26T06:20:02.148Z,67.50
2019-03-26T06:21:02.339Z,73.13
2019-03-26T06:22:02.521Z,78.75
2019-03-26T06:23:02.711Z,84.38
2019-03-26T06:24:02.897Z,90.00
2019-03-26T06:25:03.090Z,90.00
2019-03-26T06:26:03.266Z,90.00
2019-03-26T06:27:03.446Z,90.00
2019-03-26T06:28:03.633Z,90.00
2019-03-26T06:29:03.818Z,95.63
2019-03-26T06:30:03.998Z,106.88
2019-03-26T06:31:04.183Z,106.88
2019-03-26T06:32:04.364Z,112.50
2019-03-26T06:33:04.547Z,112.50
2019-03-26T06:34:04.731Z,118.13
2019-03-26T06:35:04.912Z,112.50
2019-03-26T06:36:05.094Z,118.13
2019-03-26T06:37:17.353Z,112.50
2019-03-26T06:38:05.472Z,112.50
2019-03-26T06:39:05.651Z,112.50
2019-03-26T06:40:05.838Z,112.50
2019-03-26T06:41:06.025Z,106.88
2019-03-26T06:42:06.212Z,101.25
2019-03-26T06:43:06.401Z,106.88
2019-03-26T06:44:06.582Z,106.88
2019-03-26T06:45:06.775Z,101.25
2019-03-26T06:46:06.945Z,101.25
2019-03-26T06:47:07.130Z,101.25
2019-03-26T06:48:07.319Z,95.63
2019-03-26T06:49:07.523Z,95.63
2019-03-26T06:50:07.693Z,90.00
2019-03-26T06:51:07.888Z,90.00
2019-03-26T06:52:08.076Z,84.38
2019-03-26T06:53:08.276Z,84.38
2019-03-26T06:54:08.428Z,84.38
2019-03-26T06:55:08.624Z,84.38
2019-03-26T06:56:08.808Z,84.38
2019-03-26T06:57:08.992Z,78.75
2019-03-26T06:58:09.170Z,84.38
2019-03-26T06:59:09.351Z,90.00
2019-03-26T07:00:09.532Z,90.00
2019-03-26T07:01:09.725Z,95.63
2019-03-26T07:02:09.921Z,101.25
2019-03-26T07:03:10.107Z,106.88
2019-03-26T07:04:10.296Z,106.88
2019-03-26T07:05:10.481Z,118.13
2019-03-26T07:06:10.663Z,135.00
2019-03-26T07:07:10.853Z,146.25
2019-03-26T07:08:11.031Z,151.88
2019-03-26T07:09:11.214Z,151.88
2019-03-26T07:10:11.397Z,157.50
2019-03-26T07:11:11.597Z,163.13
2019-03-26T07:12:11.763Z,168.75
2019-03-26T07:13:11.942Z,174.38
2019-03-26T07:14:12.122Z,180.00
2019-03-26T07:15:12.306Z,185.63
2019-03-26T07:16:12.482Z,191.25
2019-03-26T07:17:12.665Z,185.63
2019-03-26T07:18:12.845Z,185.63
2019-03-26T07:19:13.030Z,185.63
2019-03-26T07:20:13.211Z,180.00
2019-03-26T07:21:13.386Z,180.00
2019-03-26T07:22:13.568Z,180.00
2019-03-26T07:23:13.760Z,180.00
2019-03-26T07:24:13.937Z,174.38
2019-03-26T07:25:14.118Z,174.38
2019-03-26T07:26:14.316Z,180.00
2019-03-26T07:27:14.501Z,185.63
2019-03-26T07:28:14.663Z,196.88
2019-03-26T07:29:14.849Z,213.75
2019-03-26T07:30:15.032Z,225.00
2019-03-26T07:31:15.209Z,236.25
2019-03-26T07:32:15.391Z,247.50
2019-03-26T07:33:15.573Z,270.00
2019-03-26T07:34:15.762Z,298.13
2019-03-26T07:35:15.945Z,315.00
2019-03-26T07:36:16.126Z,309.38
2019-03-26T07:37:16.313Z,320.63
2019-03-26T07:38:16.493Z,331.88
2019-03-26T07:39:16.681Z,337.50
2019-03-26T07:40:16.866Z,315.00
2019-03-26T07:41:17.062Z,292.50
2019-03-26T07:42:17.254Z,286.88
2019-03-26T07:43:17.440Z,286.88
2019-03-26T07:44:17.616Z,286.88
2019-03-26T07:45:17.796Z,281.25
2019-03-26T07:46:17.987Z,281.25
2019-03-26T07:47:18.171Z,281.25
2019-03-26T07:48:18.363Z,270.00
2019-03-26T07:49:18.610Z,275.63
2019-03-26T07:50:18.733Z,275.63
2019-03-26T07:51:18.914Z,281.25
2019-03-26T07:52:19.096Z,292.50
2019-03-26T07:53:19.275Z,303.75
2019-03-26T07:54:19.461Z,315.00
2019-03-26T07:55:19.665Z,326.25
2019-03-26T07:56:19.846Z,376.88
2019-03-26T07:57:20.030Z,461.25
2019-03-26T07:58:20.209Z,551.25
2019-03-26T07:59:20.388Z,618.75
2019-03-26T08:00:20.571Z,680.63
2019-03-26T08:01:20.757Z,736.88
2019-03-26T08:02:20.939Z,810.00
2019-03-26T08:03:21.343Z,815.63
2019-03-26T08:04:21.311Z,742.50
2019-03-26T08:05:29.588Z,675.00
2019-03-26T08:06:21.683Z,658.13
2019-03-26T08:07:21.867Z,641.25
2019-03-26T08:08:22.052Z,613.13
2019-03-26T08:09:22.360Z,590.63
2019-03-26T08:10:22.419Z,573.75
2019-03-26T08:11:22.608Z,551.25
2019-03-26T08:12:22.794Z,540.00
2019-03-26T08:13:23.083Z,534.38
2019-03-26T08:14:23.189Z,523.13
2019-03-26T08:15:23.417Z,511.88
2019-03-26T08:16:23.536Z,495.00
2019-03-26T08:17:23.733Z,489.38
2019-03-26T08:18:23.910Z,483.75
2019-03-26T08:19:24.086Z,478.13
2019-03-26T08:20:24.271Z,483.75
2019-03-26T08:21:24.457Z,500.63
2019-03-26T08:22:24.655Z,511.88
2019-03-26T08:23:24.848Z,511.88
2019-03-26T08:24:25.034Z,523.13
2019-03-26T08:25:25.211Z,556.88
2019-03-26T08:26:25.394Z,573.75
2019-03-26T08:27:25.580Z,590.63
2019-03-26T08:28:25.766Z,573.75
2019-03-26T08:29:25.949Z,562.50
2019-03-26T08:30:26.135Z,573.75
2019-03-26T08:31:26.317Z,601.88
2019-03-26T08:32:26.505Z,646.88
2019-03-26T08:33:26.688Z,680.63
2019-03-26T08:34:26.877Z,680.63
2019-03-26T08:35:27.066Z,635.63
2019-03-26T08:36:27.252Z,573.75
2019-03-26T08:37:27.436Z,511.88
2019-03-26T08:38:27.619Z,478.13
2019-03-26T08:39:28.666Z,461.25
2019-03-26T08:42:10.677Z,444.38
2019-03-26T08:43:10.869Z,433.13
2019-03-26T08:44:11.055Z,416.25
2019-03-26T08:45:11.239Z,393.75
2019-03-26T08:46:11.425Z,376.88
2019-03-26T08:47:11.606Z,365.63
2019-03-26T08:48:11.797Z,354.38
2019-03-26T08:49:14.212Z,343.13
2019-03-26T08:50:12.164Z,337.50
2019-03-26T08:51:12.349Z,337.50
2019-03-26T08:52:12.530Z,337.50
2019-03-26T08:53:12.715Z,326.25
2019-03-26T08:54:12.902Z,320.63
2019-03-26T08:55:13.081Z,309.38
2019-03-26T08:56:13.267Z,309.38
2019-03-26T08:57:13.465Z,303.75
2019-03-26T08:58:13.651Z,303.75
2019-03-26T08:59:13.837Z,303.75
2019-03-26T09:00:14.018Z,309.38
2019-03-26T09:01:14.199Z,320.63
2019-03-26T09:02:14.384Z,320.63
2019-03-26T09:03:14.565Z,348.75
2019-03-26T09:04:14.750Z,371.25
2019-03-26T09:05:14.939Z,388.13
2019-03-26T09:06:15.123Z,388.13
2019-03-26T09:07:15.313Z,388.13
2019-03-26T09:08:24.864Z,388.13
2019-03-26T09:09:15.700Z,399.38
2019-03-26T09:10:15.880Z,405.00
2019-03-26T09:11:16.059Z,388.13
2019-03-26T09:12:16.252Z,365.63
2019-03-26T09:13:16.439Z,348.75
2019-03-26T09:14:16.622Z,337.50
2019-03-26T09:15:16.806Z,343.13
2019-03-26T09:16:16.987Z,343.13
2019-03-26T09:17:19.712Z,326.25
2019-03-26T09:18:17.352Z,320.63
2019-03-26T09:19:17.541Z,320.63
2019-03-26T09:20:17.725Z,320.63
2019-03-26T09:21:17.909Z,326.25
2019-03-26T09:22:18.092Z,331.88
2019-03-26T09:23:18.279Z,331.88
2019-03-26T09:24:18.460Z,326.25
2019-03-26T09:25:18.646Z,326.25
2019-03-26T09:26:18.825Z,331.88
2019-03-26T09:27:19.006Z,326.25
2019-03-26T09:28:19.190Z,320.63
2019-03-26T09:29:19.373Z,320.63
2019-03-26T09:30:19.558Z,315.00
2019-03-26T09:31:19.737Z,303.75
2019-03-26T09:32:19.924Z,292.50
2019-03-26T09:33:20.104Z,292.50
2019-03-26T09:34:20.291Z,286.88
2019-03-26T09:35:20.474Z,281.25
2019-03-26T09:36:20.665Z,275.63
2019-03-26T09:37:20.854Z,275.63
2019-03-26T09:38:21.032Z,270.00
2019-03-26T09:39:21.221Z,270.00
2019-03-26T09:40:21.402Z,286.88
2019-03-26T09:41:21.586Z,298.13
2019-03-26T09:42:21.765Z,303.75
2019-03-26T09:43:21.952Z,326.25
2019-03-26T09:44:22.130Z,337.50
2019-03-26T09:45:22.319Z,365.63
2019-03-26T09:46:22.504Z,388.13
2019-03-26T09:47:22.689Z,410.63
2019-03-26T09:48:22.874Z,416.25
2019-03-26T09:49:23.050Z,410.63
2019-03-26T09:50:23.233Z,427.50
2019-03-26T09:51:23.415Z,427.50
2019-03-26T09:52:23.596Z,421.88
2019-03-26T09:53:23.778Z,421.88
2019-03-26T09:54:23.964Z,438.75
2019-03-26T09:55:24.148Z,466.88
2019-03-26T09:56:29.377Z,478.13
2019-03-26T09:57:24.523Z,489.38
2019-03-26T09:58:24.713Z,511.88
2019-03-26T09:59:24.898Z,523.13
2019-03-26T10:00:25.110Z,540.00
2019-03-26T10:01:25.283Z,551.25
2019-03-26T10:02:25.469Z,573.75
2019-03-26T10:03:25.650Z,596.25
2019-03-26T10:04:25.826Z,635.63
2019-03-26T10:05:26.011Z,686.25
2019-03-26T10:06:26.194Z,703.13
2019-03-26T10:07:26.377Z,669.38
2019-03-26T10:08:26.563Z,658.13
2019-03-26T10:09:26.750Z,663.75
2019-03-26T10:10:26.929Z,652.50
2019-03-26T10:11:27.112Z,641.25
2019-03-26T10:12:27.296Z,635.63
2019-03-26T10:13:27.493Z,658.13
2019-03-26T10:14:27.679Z,680.63
2019-03-26T10:15:27.859Z,680.63
2019-03-26T10:16:28.054Z,759.38
2019-03-26T10:17:28.243Z,883.13
2019-03-26T10:18:28.427Z,922.50
2019-03-26T10:19:28.623Z,1040.63
2019-03-26T10:20:28.790Z,1490.63
2019-03-26T10:21:28.992Z,1738.13
2019-03-26T10:22:29.172Z,1929.38
2019-03-26T10:23:29.361Z,1659.38
2019-03-26T10:24:29.554Z,2295.00
2019-03-26T10:25:29.748Z,7014.38
2019-03-26T10:26:29.945Z,5040.00
2019-03-26T10:27:30.129Z,5490.00
2019-03-26T10:28:30.320Z,6243.75
2019-03-26T10:29:31.230Z,4308.75
2019-03-26T10:30:30.701Z,4826.25
2019-03-26T10:31:30.896Z,4843.13
2019-03-26T10:32:31.082Z,4702.50
2019-03-26T10:33:31.270Z,3026.25
2019-03-26T10:34:31.459Z,4280.63
2019-03-26T10:35:31.649Z,2649.38
2019-03-26T10:36:31.863Z,2587.50
2019-03-26T10:37:32.038Z,2525.63
2019-03-26T10:38:32.234Z,2649.38
2019-03-26T10:39:32.426Z,2570.63
2019-03-26T10:40:32.613Z,2587.50
2019-03-26T10:41:32.809Z,2851.88
2019-03-26T10:42:33.005Z,2835.00
2019-03-26T10:43:33.188Z,3110.63
2019-03-26T10:44:33.390Z,2857.50
2019-03-26T10:45:33.568Z,4258.13
2019-03-26T10:46:33.758Z,5096.25
2019-03-26T10:47:33.942Z,2548.13
2019-03-26T10:48:34.139Z,2508.75
2019-03-26T10:49:34.325Z,2885.63
2019-03-26T10:50:34.521Z,2840.63
2019-03-26T10:51:34.726Z,2233.13
2019-03-26T10:52:34.923Z,2019.38
2019-03-26T10:53:35.116Z,1867.50
2019-03-26T10:54:35.308Z,1800.00
2019-03-26T10:55:35.500Z,1788.75
2019-03-26T10:56:35.680Z,1811.25
2019-03-26T10:57:35.880Z,1704.38
2019-03-26T10:58:36.066Z,1614.38
2019-03-26T10:59:36.255Z,1563.75
2019-03-26T11:00:36.445Z,1479.38
2019-03-26T11:01:36.634Z,1372.50
2019-03-26T11:02:36.823Z,1260.00
2019-03-26T11:03:37.021Z,1209.38
2019-03-26T11:04:37.207Z,1153.13
2019-03-26T11:05:37.398Z,1108.13
2019-03-26T11:06:37.585Z,1080.00
2019-03-26T11:07:37.776Z,1057.50
2019-03-26T11:08:37.962Z,1035.00
2019-03-26T11:09:38.153Z,1130.63
2019-03-26T11:10:38.345Z,1091.25
2019-03-26T11:11:38.531Z,984.38
2019-03-26T11:12:38.725Z,1051.88
2019-03-26T11:13:38.912Z,1006.88
2019-03-26T11:14:39.103Z,933.75
2019-03-26T11:15:39.288Z,877.50
2019-03-26T11:16:39.472Z,877.50
2019-03-26T11:17:39.670Z,961.88
2019-03-26T11:18:39.858Z,1738.13
2019-03-26T11:19:40.045Z,1231.88
2019-03-26T11:20:40.233Z,4027.50
2019-03-26T11:21:40.431Z,2947.50
2019-03-26T11:22:40.607Z,2677.50
2019-03-26T11:23:40.794Z,1856.25
2019-03-26T11:24:40.982Z,2238.75
2019-03-26T11:25:41.169Z,1603.13
2019-03-26T11:26:41.354Z,2036.25
2019-03-26T11:27:41.544Z,5428.13
2019-03-26T11:28:41.728Z,1895.63
2019-03-26T11:29:41.921Z,2531.25
2019-03-26T11:30:42.109Z,2587.50
2019-03-26T11:31:42.300Z,2210.63
2019-03-26T11:32:42.485Z,2424.38
2019-03-26T11:33:42.675Z,4432.50
2019-03-26T11:34:42.863Z,4471.88
2019-03-26T11:35:43.053Z,4725.00
2019-03-26T11:36:43.242Z,2632.50
2019-03-26T11:37:43.429Z,2610.00
2019-03-26T11:38:43.624Z,2025.00
2019-03-26T11:39:43.816Z,2143.13
2019-03-26T11:40:44.009Z,2148.75
2019-03-26T11:41:44.199Z,1710.00
2019-03-26T11:42:44.401Z,1552.50
2019-03-26T11:43:44.588Z,1440.00
2019-03-26T11:44:44.805Z,1220.63
2019-03-26T11:45:44.985Z,995.63
2019-03-26T11:46:45.188Z,849.38
2019-03-26T11:47:45.377Z,821.25
2019-03-26T11:48:45.565Z,798.75
2019-03-26T11:49:45.750Z,821.25
2019-03-26T11:50:45.939Z,950.63
2019-03-26T11:51:46.126Z,1659.38
2019-03-26T11:52:46.314Z,1372.50
2019-03-26T11:53:46.516Z,1535.63
2019-03-26T11:54:46.696Z,1479.38
2019-03-26T11:55:46.887Z,1417.50
2019-03-26T11:56:47.068Z,1366.88
2019-03-26T11:57:47.268Z,1175.63
2019-03-26T11:58:47.451Z,1074.38
2019-03-26T11:59:47.677Z,990.00
2019-03-26T12:00:47.838Z,894.38
2019-03-26T12:01:48.014Z,821.25
2019-03-26T12:02:48.203Z,781.88
2019-03-26T12:03:48.388Z,787.50
2019-03-26T12:04:48.580Z,821.25
2019-03-26T12:05:48.763Z,961.88
2019-03-26T12:06:48.952Z,1113.75
2019-03-26T12:07:49.143Z,1102.50
2019-03-26T12:08:49.354Z,1164.38
2019-03-26T12:09:49.540Z,1293.75
2019-03-26T12:10:49.727Z,1231.88
2019-03-26T12:11:49.923Z,1237.50
2019-03-26T12:12:50.109Z,1282.50
2019-03-26T12:13:50.297Z,1276.88
2019-03-26T12:14:50.490Z,1226.25
2019-03-26T12:15:50.674Z,1175.63
2019-03-26T12:16:50.861Z,1147.50
2019-03-26T12:17:51.065Z,1108.13
2019-03-26T12:18:51.239Z,1096.88
2019-03-26T12:19:51.432Z,1046.25
2019-03-26T12:20:51.621Z,1012.50
2019-03-26T12:21:51.805Z,1035.00
2019-03-26T12:22:51.995Z,1035.00
2019-03-26T12:23:52.183Z,1012.50
2019-03-26T12:24:52.374Z,939.38
2019-03-26T12:25:52.558Z,821.25
2019-03-26T12:26:52.745Z,720.00
2019-03-26T12:27:52.931Z,624.38
2019-03-26T12:28:53.123Z,534.38
2019-03-26T12:29:53.322Z,478.13
2019-03-26T12:30:53.508Z,455.63
2019-03-26T12:31:53.701Z,455.63
2019-03-26T12:32:53.890Z,455.63
2019-03-26T12:33:54.095Z,455.63
2019-03-26T12:34:54.277Z,461.25
2019-03-26T12:35:54.459Z,483.75
2019-03-26T12:36:54.648Z,517.50
2019-03-26T12:37:54.835Z,545.63
2019-03-26T12:38:55.024Z,601.88
2019-03-26T12:39:59.943Z,686.25
2019-03-26T12:40:55.403Z,697.50
2019-03-26T12:41:55.597Z,669.38
2019-03-26T12:42:55.781Z,652.50
2019-03-26T12:43:55.971Z,624.38
2019-03-26T12:44:56.157Z,613.13
2019-03-26T12:45:56.338Z,579.38
2019-03-26T12:46:58.329Z,545.63
2019-03-26T12:47:56.706Z,511.88
2019-03-26T12:48:56.895Z,483.75
2019-03-26T12:49:57.079Z,455.63
2019-03-26T12:50:57.272Z,421.88
2019-03-26T12:51:57.462Z,399.38